sensor_id;sensor_type;location;lat;lon;timestamp;P1;durP1;ratioP1;P2;durP2;ratioP2
72205;SDS011;60111;48.286;7.812;2023-03-01T00:00:33;22.13;;;15.03;;
72205;SDS011;60111;48.286;7.812;2023-03-01T00:03:05;22.65;;;14.63;;
72205;SDS011;60111;48.286;7.812;2023-03-01T00:05:49;22.82;;;15.88;;
72205;SDS011;60111;48.286;7.812;2023-03-01T00:08:16;23.02;;;14.33;;
72205;SDS011;60111;48.286;7.812;2023-03-01T00:10:48;23.98;;;15.48;;
72205;SDS011;60111;48.286;7.812;2023-03-01T00:13:21;22.50;;;14.07;;
72205;SDS011;60111;48.286;7.812;2023-03-01T00:15:54;24.23;;;14.73;;
72205;SDS011;60111;48.286;7.812;2023-03-01T00:18:26;26.65;;;15.40;;
72205;SDS011;60111;48.286;7.812;2023-03-01T00:20:59;25.27;;;15.35;;
72205;SDS011;60111;48.286;7.812;2023-03-01T00:23:33;24.47;;;16.32;;
72205;SDS011;60111;48.286;7.812;2023-03-01T00:26:07;25.48;;;15.53;;
72205;SDS011;60111;48.286;7.812;2023-03-01T00:28:42;24.75;;;15.10;;
72205;SDS011;60111;48.286;7.812;2023-03-01T00:31:15;25.08;;;15.55;;
72205;SDS011;60111;48.286;7.812;2023-03-01T00:33:53;22.80;;;14.85;;
72205;SDS011;60111;48.286;7.812;2023-03-01T00:36:32;27.40;;;14.58;;
72205;SDS011;60111;48.286;7.812;2023-03-01T00:39:07;23.65;;;14.58;;
72205;SDS011;60111;48.286;7.812;2023-03-01T00:41:45;26.52;;;15.80;;
72205;SDS011;60111;48.286;7.812;2023-03-01T00:44:18;26.75;;;16.27;;
72205;SDS011;60111;48.286;7.812;2023-03-01T00:46:50;23.87;;;14.87;;
72205;SDS011;60111;48.286;7.812;2023-03-01T00:49:23;21.45;;;14.40;;
72205;SDS011;60111;48.286;7.812;2023-03-01T00:54:29;26.90;;;14.38;;
72205;SDS011;60111;48.286;7.812;2023-03-01T00:57:02;22.82;;;13.78;;
72205;SDS011;60111;48.286;7.812;2023-03-01T00:59:34;21.57;;;13.83;;
72205;SDS011;60111;48.286;7.812;2023-03-01T01:02:07;20.30;;;13.45;;
72205;SDS011;60111;48.286;7.812;2023-03-01T01:04:39;23.22;;;14.03;;
72205;SDS011;60111;48.286;7.812;2023-03-01T01:07:12;22.85;;;15.13;;
72205;SDS011;60111;48.286;7.812;2023-03-01T01:09:46;22.67;;;14.87;;
72205;SDS011;60111;48.286;7.812;2023-03-01T01:12:18;23.35;;;14.60;;
72205;SDS011;60111;48.286;7.812;2023-03-01T01:14:51;24.55;;;15.20;;
72205;SDS011;60111;48.286;7.812;2023-03-01T01:17:24;21.85;;;14.50;;
72205;SDS011;60111;48.286;7.812;2023-03-01T01:19:56;22.95;;;14.53;;
72205;SDS011;60111;48.286;7.812;2023-03-01T01:22:29;23.45;;;14.75;;
72205;SDS011;60111;48.286;7.812;2023-03-01T01:25:01;24.23;;;14.45;;
72205;SDS011;60111;48.286;7.812;2023-03-01T01:27:34;28.12;;;15.28;;
72205;SDS011;60111;48.286;7.812;2023-03-01T01:30:07;26.82;;;15.50;;
72205;SDS011;60111;48.286;7.812;2023-03-01T01:32:40;23.50;;;15.10;;
72205;SDS011;60111;48.286;7.812;2023-03-01T01:35:13;24.65;;;15.50;;
72205;SDS011;60111;48.286;7.812;2023-03-01T01:37:45;27.40;;;14.75;;
72205;SDS011;60111;48.286;7.812;2023-03-01T01:40:18;24.95;;;14.93;;
72205;SDS011;60111;48.286;7.812;2023-03-01T01:42:51;26.48;;;14.87;;
72205;SDS011;60111;48.286;7.812;2023-03-01T01:45:28;26.60;;;14.45;;
72205;SDS011;60111;48.286;7.812;2023-03-01T01:48:03;26.40;;;14.98;;
72205;SDS011;60111;48.286;7.812;2023-03-01T01:50:38;23.32;;;13.95;;
72205;SDS011;60111;48.286;7.812;2023-03-01T01:53:13;28.00;;;14.40;;
72205;SDS011;60111;48.286;7.812;2023-03-01T01:55:49;22.80;;;14.25;;
72205;SDS011;60111;48.286;7.812;2023-03-01T01:58:28;21.60;;;14.47;;
72205;SDS011;60111;48.286;7.812;2023-03-01T02:01:02;25.30;;;15.45;;
72205;SDS011;60111;48.286;7.812;2023-03-01T02:03:37;28.67;;;15.65;;
72205;SDS011;60111;48.286;7.812;2023-03-01T02:06:15;24.43;;;15.32;;
72205;SDS011;60111;48.286;7.812;2023-03-01T02:09:07;29.63;;;16.30;;
72205;SDS011;60111;48.286;7.812;2023-03-01T02:11:41;26.73;;;17.23;;
72205;SDS011;60111;48.286;7.812;2023-03-01T02:16:48;27.55;;;18.02;;
72205;SDS011;60111;48.286;7.812;2023-03-01T02:19:40;25.70;;;16.62;;
72205;SDS011;60111;48.286;7.812;2023-03-01T02:22:24;25.37;;;15.63;;
72205;SDS011;60111;48.286;7.812;2023-03-01T02:25:05;28.00;;;16.40;;
72205;SDS011;60111;48.286;7.812;2023-03-01T02:27:40;26.52;;;16.67;;
72205;SDS011;60111;48.286;7.812;2023-03-01T02:30:29;25.90;;;16.05;;
72205;SDS011;60111;48.286;7.812;2023-03-01T02:33:03;27.97;;;16.37;;
72205;SDS011;60111;48.286;7.812;2023-03-01T02:35:37;24.73;;;15.37;;
72205;SDS011;60111;48.286;7.812;2023-03-01T02:38:10;25.50;;;16.60;;
72205;SDS011;60111;48.286;7.812;2023-03-01T02:40:42;28.83;;;17.60;;
72205;SDS011;60111;48.286;7.812;2023-03-01T02:43:15;27.17;;;16.52;;
72205;SDS011;60111;48.286;7.812;2023-03-01T02:48:22;27.20;;;16.57;;
72205;SDS011;60111;48.286;7.812;2023-03-01T02:51:02;29.32;;;17.10;;
72205;SDS011;60111;48.286;7.812;2023-03-01T02:53:45;31.00;;;17.57;;
72205;SDS011;60111;48.286;7.812;2023-03-01T02:56:18;26.65;;;16.23;;
72205;SDS011;60111;48.286;7.812;2023-03-01T02:58:51;28.63;;;16.77;;
72205;SDS011;60111;48.286;7.812;2023-03-01T03:01:24;28.00;;;17.62;;
72205;SDS011;60111;48.286;7.812;2023-03-01T03:03:59;26.77;;;17.20;;
72205;SDS011;60111;48.286;7.812;2023-03-01T03:06:32;32.90;;;17.80;;
72205;SDS011;60111;48.286;7.812;2023-03-01T03:09:05;26.68;;;17.05;;
72205;SDS011;60111;48.286;7.812;2023-03-01T03:11:38;27.60;;;15.87;;
72205;SDS011;60111;48.286;7.812;2023-03-01T03:14:13;29.17;;;17.77;;
72205;SDS011;60111;48.286;7.812;2023-03-01T03:16:48;27.77;;;16.73;;
72205;SDS011;60111;48.286;7.812;2023-03-01T03:19:21;26.93;;;16.82;;
72205;SDS011;60111;48.286;7.812;2023-03-01T03:21:54;25.40;;;16.15;;
72205;SDS011;60111;48.286;7.812;2023-03-01T03:24:26;28.30;;;16.95;;
72205;SDS011;60111;48.286;7.812;2023-03-01T03:26:59;27.22;;;17.05;;
72205;SDS011;60111;48.286;7.812;2023-03-01T03:29:32;29.32;;;17.23;;
72205;SDS011;60111;48.286;7.812;2023-03-01T03:32:05;30.40;;;18.20;;
72205;SDS011;60111;48.286;7.812;2023-03-01T03:34:38;29.30;;;18.17;;
72205;SDS011;60111;48.286;7.812;2023-03-01T03:37:10;26.87;;;17.12;;
72205;SDS011;60111;48.286;7.812;2023-03-01T03:39:44;28.90;;;18.52;;
72205;SDS011;60111;48.286;7.812;2023-03-01T03:42:17;31.07;;;18.50;;
72205;SDS011;60111;48.286;7.812;2023-03-01T03:44:50;28.83;;;18.07;;
72205;SDS011;60111;48.286;7.812;2023-03-01T03:47:22;30.05;;;17.25;;
72205;SDS011;60111;48.286;7.812;2023-03-01T03:49:55;30.20;;;16.95;;
72205;SDS011;60111;48.286;7.812;2023-03-01T03:52:27;28.73;;;17.55;;
72205;SDS011;60111;48.286;7.812;2023-03-01T03:55:00;29.05;;;17.52;;
72205;SDS011;60111;48.286;7.812;2023-03-01T03:57:32;29.40;;;18.17;;
72205;SDS011;60111;48.286;7.812;2023-03-01T04:00:06;28.02;;;17.40;;
72205;SDS011;60111;48.286;7.812;2023-03-01T04:02:45;28.95;;;17.90;;
72205;SDS011;60111;48.286;7.812;2023-03-01T04:05:19;27.13;;;17.95;;
72205;SDS011;60111;48.286;7.812;2023-03-01T04:07:51;29.20;;;18.25;;
72205;SDS011;60111;48.286;7.812;2023-03-01T04:10:26;28.80;;;17.40;;
72205;SDS011;60111;48.286;7.812;2023-03-01T04:13:00;28.75;;;17.73;;
72205;SDS011;60111;48.286;7.812;2023-03-01T04:15:33;31.25;;;17.25;;
72205;SDS011;60111;48.286;7.812;2023-03-01T04:18:06;26.23;;;17.53;;
72205;SDS011;60111;48.286;7.812;2023-03-01T04:20:40;29.35;;;17.82;;
72205;SDS011;60111;48.286;7.812;2023-03-01T04:23:14;31.87;;;17.57;;
72205;SDS011;60111;48.286;7.812;2023-03-01T04:25:57;31.05;;;18.10;;
72205;SDS011;60111;48.286;7.812;2023-03-01T04:28:31;30.43;;;18.37;;
72205;SDS011;60111;48.286;7.812;2023-03-01T04:31:08;26.27;;;17.30;;
72205;SDS011;60111;48.286;7.812;2023-03-01T04:36:24;28.70;;;17.35;;
72205;SDS011;60111;48.286;7.812;2023-03-01T04:38:58;24.82;;;16.60;;
72205;SDS011;60111;48.286;7.812;2023-03-01T04:41:33;29.27;;;16.97;;
72205;SDS011;60111;48.286;7.812;2023-03-01T04:44:06;28.38;;;17.05;;
72205;SDS011;60111;48.286;7.812;2023-03-01T04:46:40;29.25;;;18.27;;
72205;SDS011;60111;48.286;7.812;2023-03-01T04:49:12;29.87;;;18.37;;
72205;SDS011;60111;48.286;7.812;2023-03-01T04:51:46;28.73;;;18.90;;
72205;SDS011;60111;48.286;7.812;2023-03-01T04:54:19;24.67;;;16.25;;
72205;SDS011;60111;48.286;7.812;2023-03-01T04:56:51;29.63;;;17.45;;
72205;SDS011;60111;48.286;7.812;2023-03-01T04:59:24;29.55;;;17.92;;
72205;SDS011;60111;48.286;7.812;2023-03-01T05:01:57;30.92;;;18.23;;
72205;SDS011;60111;48.286;7.812;2023-03-01T05:04:31;29.10;;;17.90;;
72205;SDS011;60111;48.286;7.812;2023-03-01T05:07:03;31.27;;;18.17;;
72205;SDS011;60111;48.286;7.812;2023-03-01T05:09:36;29.40;;;17.87;;
72205;SDS011;60111;48.286;7.812;2023-03-01T05:12:09;26.48;;;16.12;;
72205;SDS011;60111;48.286;7.812;2023-03-01T05:14:41;29.42;;;17.42;;
72205;SDS011;60111;48.286;7.812;2023-03-01T05:17:14;33.10;;;18.57;;
72205;SDS011;60111;48.286;7.812;2023-03-01T05:19:47;37.58;;;19.67;;
72205;SDS011;60111;48.286;7.812;2023-03-01T05:22:19;30.10;;;18.07;;
72205;SDS011;60111;48.286;7.812;2023-03-01T05:24:52;31.12;;;19.60;;
72205;SDS011;60111;48.286;7.812;2023-03-01T05:27:24;32.30;;;19.42;;
72205;SDS011;60111;48.286;7.812;2023-03-01T05:29:57;33.40;;;19.42;;
72205;SDS011;60111;48.286;7.812;2023-03-01T05:32:29;30.17;;;19.02;;
72205;SDS011;60111;48.286;7.812;2023-03-01T05:35:02;29.80;;;17.85;;
72205;SDS011;60111;48.286;7.812;2023-03-01T05:37:36;33.77;;;19.33;;
72205;SDS011;60111;48.286;7.812;2023-03-01T05:40:09;29.98;;;18.67;;
72205;SDS011;60111;48.286;7.812;2023-03-01T05:42:45;29.15;;;17.77;;
72205;SDS011;60111;48.286;7.812;2023-03-01T05:45:20;29.85;;;18.60;;
72205;SDS011;60111;48.286;7.812;2023-03-01T05:47:54;29.45;;;17.92;;
72205;SDS011;60111;48.286;7.812;2023-03-01T05:50:28;26.80;;;16.90;;
72205;SDS011;60111;48.286;7.812;2023-03-01T05:53:03;25.62;;;15.93;;
72205;SDS011;60111;48.286;7.812;2023-03-01T05:55:38;30.43;;;17.85;;
72205;SDS011;60111;48.286;7.812;2023-03-01T05:58:13;30.72;;;16.50;;
72205;SDS011;60111;48.286;7.812;2023-03-01T06:00:48;27.60;;;17.35;;
72205;SDS011;60111;48.286;7.812;2023-03-01T06:03:20;29.27;;;16.90;;
72205;SDS011;60111;48.286;7.812;2023-03-01T06:05:56;30.10;;;17.25;;
72205;SDS011;60111;48.286;7.812;2023-03-01T06:08:29;25.88;;;15.70;;
72205;SDS011;60111;48.286;7.812;2023-03-01T06:11:02;28.27;;;16.25;;
72205;SDS011;60111;48.286;7.812;2023-03-01T06:13:34;26.93;;;17.07;;
72205;SDS011;60111;48.286;7.812;2023-03-01T06:16:09;28.57;;;17.60;;
72205;SDS011;60111;48.286;7.812;2023-03-01T06:18:47;27.40;;;16.02;;
72205;SDS011;60111;48.286;7.812;2023-03-01T06:21:20;28.95;;;16.15;;
72205;SDS011;60111;48.286;7.812;2023-03-01T06:23:52;32.00;;;17.82;;
72205;SDS011;60111;48.286;7.812;2023-03-01T06:26:25;31.02;;;17.95;;
72205;SDS011;60111;48.286;7.812;2023-03-01T06:28:57;29.23;;;16.12;;
72205;SDS011;60111;48.286;7.812;2023-03-01T06:31:30;34.20;;;18.75;;
72205;SDS011;60111;48.286;7.812;2023-03-01T06:34:02;31.45;;;17.98;;
72205;SDS011;60111;48.286;7.812;2023-03-01T06:36:35;29.52;;;18.12;;
72205;SDS011;60111;48.286;7.812;2023-03-01T06:39:08;30.08;;;18.37;;
72205;SDS011;60111;48.286;7.812;2023-03-01T06:41:40;40.80;;;22.07;;
72205;SDS011;60111;48.286;7.812;2023-03-01T06:44:13;32.90;;;19.82;;
72205;SDS011;60111;48.286;7.812;2023-03-01T06:46:45;29.35;;;18.55;;
72205;SDS011;60111;48.286;7.812;2023-03-01T06:49:19;33.28;;;20.08;;
72205;SDS011;60111;48.286;7.812;2023-03-01T06:51:52;31.07;;;18.43;;
72205;SDS011;60111;48.286;7.812;2023-03-01T06:54:24;32.93;;;18.82;;
72205;SDS011;60111;48.286;7.812;2023-03-01T06:56:57;42.25;;;20.08;;
72205;SDS011;60111;48.286;7.812;2023-03-01T06:59:29;31.25;;;17.87;;
72205;SDS011;60111;48.286;7.812;2023-03-01T07:02:02;28.00;;;17.52;;
72205;SDS011;60111;48.286;7.812;2023-03-01T07:04:34;29.92;;;17.92;;
72205;SDS011;60111;48.286;7.812;2023-03-01T07:07:07;36.05;;;19.17;;
72205;SDS011;60111;48.286;7.812;2023-03-01T07:09:40;31.75;;;18.80;;
72205;SDS011;60111;48.286;7.812;2023-03-01T07:12:12;32.03;;;18.87;;
72205;SDS011;60111;48.286;7.812;2023-03-01T07:14:45;31.93;;;18.40;;
72205;SDS011;60111;48.286;7.812;2023-03-01T07:17:17;31.85;;;18.77;;
72205;SDS011;60111;48.286;7.812;2023-03-01T07:19:50;32.03;;;18.50;;
72205;SDS011;60111;48.286;7.812;2023-03-01T07:22:22;36.20;;;19.07;;
72205;SDS011;60111;48.286;7.812;2023-03-01T07:24:55;36.28;;;20.65;;
72205;SDS011;60111;48.286;7.812;2023-03-01T07:27:28;31.45;;;18.90;;
72205;SDS011;60111;48.286;7.812;2023-03-01T07:30:00;34.40;;;18.63;;
72205;SDS011;60111;48.286;7.812;2023-03-01T07:32:33;32.53;;;18.75;;
72205;SDS011;60111;48.286;7.812;2023-03-01T07:35:06;33.28;;;19.87;;
72205;SDS011;60111;48.286;7.812;2023-03-01T07:37:39;32.40;;;19.42;;
72205;SDS011;60111;48.286;7.812;2023-03-01T07:40:12;36.20;;;19.85;;
72205;SDS011;60111;48.286;7.812;2023-03-01T07:42:45;31.05;;;18.55;;
72205;SDS011;60111;48.286;7.812;2023-03-01T07:45:17;34.10;;;20.52;;
72205;SDS011;60111;48.286;7.812;2023-03-01T07:47:50;59.45;;;26.70;;
72205;SDS011;60111;48.286;7.812;2023-03-01T07:50:23;24.53;;;15.47;;
72205;SDS011;60111;48.286;7.812;2023-03-01T07:52:56;30.45;;;19.35;;
72205;SDS011;60111;48.286;7.812;2023-03-01T07:55:29;30.95;;;18.07;;
72205;SDS011;60111;48.286;7.812;2023-03-01T07:58:01;31.20;;;18.12;;
72205;SDS011;60111;48.286;7.812;2023-03-01T08:00:34;29.87;;;18.77;;
72205;SDS011;60111;48.286;7.812;2023-03-01T08:03:07;29.98;;;18.55;;
72205;SDS011;60111;48.286;7.812;2023-03-01T08:05:39;40.88;;;21.77;;
72205;SDS011;60111;48.286;7.812;2023-03-01T08:08:12;36.65;;;22.25;;
72205;SDS011;60111;48.286;7.812;2023-03-01T08:10:44;46.53;;;26.97;;
72205;SDS011;60111;48.286;7.812;2023-03-01T08:13:21;34.10;;;21.02;;
72205;SDS011;60111;48.286;7.812;2023-03-01T08:15:54;40.45;;;19.55;;
72205;SDS011;60111;48.286;7.812;2023-03-01T08:18:28;36.08;;;20.85;;
72205;SDS011;60111;48.286;7.812;2023-03-01T08:21:06;30.52;;;18.95;;
72205;SDS011;60111;48.286;7.812;2023-03-01T08:23:36;29.70;;;17.90;;
72205;SDS011;60111;48.286;7.812;2023-03-01T08:26:10;32.55;;;19.40;;
72205;SDS011;60111;48.286;7.812;2023-03-01T08:28:45;29.77;;;18.67;;
72205;SDS011;60111;48.286;7.812;2023-03-01T08:31:21;32.47;;;19.77;;
72205;SDS011;60111;48.286;7.812;2023-03-01T08:33:55;31.80;;;19.07;;
72205;SDS011;60111;48.286;7.812;2023-03-01T08:36:37;33.95;;;20.23;;
72205;SDS011;60111;48.286;7.812;2023-03-01T08:39:12;31.70;;;19.15;;
72205;SDS011;60111;48.286;7.812;2023-03-01T08:41:47;31.10;;;20.00;;
72205;SDS011;60111;48.286;7.812;2023-03-01T08:44:20;31.70;;;19.73;;
72205;SDS011;60111;48.286;7.812;2023-03-01T08:46:52;33.80;;;20.25;;
72205;SDS011;60111;48.286;7.812;2023-03-01T08:49:26;34.57;;;19.87;;
72205;SDS011;60111;48.286;7.812;2023-03-01T08:51:59;34.43;;;21.45;;
72205;SDS011;60111;48.286;7.812;2023-03-01T08:54:32;36.45;;;21.48;;
72205;SDS011;60111;48.286;7.812;2023-03-01T08:57:04;33.70;;;20.15;;
72205;SDS011;60111;48.286;7.812;2023-03-01T08:59:37;40.25;;;20.77;;
72205;SDS011;60111;48.286;7.812;2023-03-01T09:02:11;31.40;;;21.07;;
72205;SDS011;60111;48.286;7.812;2023-03-01T09:04:45;35.50;;;21.68;;
72205;SDS011;60111;48.286;7.812;2023-03-01T09:07:18;35.88;;;21.30;;
72205;SDS011;60111;48.286;7.812;2023-03-01T09:09:50;37.20;;;21.85;;
72205;SDS011;60111;48.286;7.812;2023-03-01T09:12:24;35.28;;;21.65;;
72205;SDS011;60111;48.286;7.812;2023-03-01T09:14:57;31.68;;;19.92;;
72205;SDS011;60111;48.286;7.812;2023-03-01T09:17:29;33.98;;;20.43;;
72205;SDS011;60111;48.286;7.812;2023-03-01T09:20:02;32.98;;;20.40;;
72205;SDS011;60111;48.286;7.812;2023-03-01T09:22:36;33.00;;;20.00;;
72205;SDS011;60111;48.286;7.812;2023-03-01T09:25:09;38.80;;;20.08;;
72205;SDS011;60111;48.286;7.812;2023-03-01T09:27:41;33.45;;;20.57;;
72205;SDS011;60111;48.286;7.812;2023-03-01T09:30:14;33.67;;;19.77;;
72205;SDS011;60111;48.286;7.812;2023-03-01T09:32:47;34.13;;;20.57;;
72205;SDS011;60111;48.286;7.812;2023-03-01T09:35:20;36.70;;;20.55;;
72205;SDS011;60111;48.286;7.812;2023-03-01T09:37:53;35.08;;;19.48;;
72205;SDS011;60111;48.286;7.812;2023-03-01T09:40:26;36.03;;;20.72;;
72205;SDS011;60111;48.286;7.812;2023-03-01T09:43:05;32.60;;;19.93;;
72205;SDS011;60111;48.286;7.812;2023-03-01T09:45:36;32.55;;;20.08;;
72205;SDS011;60111;48.286;7.812;2023-03-01T09:48:12;34.30;;;19.90;;
72205;SDS011;60111;48.286;7.812;2023-03-01T09:50:46;34.10;;;21.10;;
72205;SDS011;60111;48.286;7.812;2023-03-01T09:53:21;36.35;;;22.02;;
72205;SDS011;60111;48.286;7.812;2023-03-01T09:56:05;34.30;;;21.33;;
72205;SDS011;60111;48.286;7.812;2023-03-01T09:58:47;35.47;;;19.77;;
72205;SDS011;60111;48.286;7.812;2023-03-01T10:04:06;34.88;;;19.70;;
72205;SDS011;60111;48.286;7.812;2023-03-01T10:07:05;31.25;;;20.15;;
72205;SDS011;60111;48.286;7.812;2023-03-01T10:09:44;32.80;;;21.05;;
72205;SDS011;60111;48.286;7.812;2023-03-01T10:12:18;32.67;;;20.20;;
72205;SDS011;60111;48.286;7.812;2023-03-01T10:15:11;31.50;;;19.87;;
72205;SDS011;60111;48.286;7.812;2023-03-01T10:17:52;33.10;;;20.27;;
72205;SDS011;60111;48.286;7.812;2023-03-01T10:20:30;32.35;;;20.15;;
72205;SDS011;60111;48.286;7.812;2023-03-01T10:23:02;34.98;;;19.92;;
72205;SDS011;60111;48.286;7.812;2023-03-01T10:25:44;32.65;;;20.05;;
72205;SDS011;60111;48.286;7.812;2023-03-01T10:28:25;35.90;;;20.60;;
72205;SDS011;60111;48.286;7.812;2023-03-01T10:30:56;30.70;;;19.82;;
72205;SDS011;60111;48.286;7.812;2023-03-01T10:33:31;33.67;;;19.42;;
72205;SDS011;60111;48.286;7.812;2023-03-01T10:36:06;30.23;;;19.25;;
72205;SDS011;60111;48.286;7.812;2023-03-01T10:38:49;31.45;;;19.62;;
72205;SDS011;60111;48.286;7.812;2023-03-01T10:41:25;32.88;;;20.90;;
72205;SDS011;60111;48.286;7.812;2023-03-01T10:43:59;28.83;;;19.77;;
72205;SDS011;60111;48.286;7.812;2023-03-01T10:46:32;26.20;;;18.05;;
72205;SDS011;60111;48.286;7.812;2023-03-01T10:51:51;25.43;;;16.97;;
72205;SDS011;60111;48.286;7.812;2023-03-01T10:54:26;22.10;;;16.17;;
72205;SDS011;60111;48.286;7.812;2023-03-01T10:57:02;24.00;;;17.50;;
72205;SDS011;60111;48.286;7.812;2023-03-01T10:59:37;24.43;;;17.55;;
72205;SDS011;60111;48.286;7.812;2023-03-01T11:02:15;24.27;;;17.45;;
72205;SDS011;60111;48.286;7.812;2023-03-01T11:05:02;24.12;;;16.65;;
72205;SDS011;60111;48.286;7.812;2023-03-01T11:07:54;24.25;;;16.50;;
72205;SDS011;60111;48.286;7.812;2023-03-01T11:10:30;22.17;;;15.68;;
72205;SDS011;60111;48.286;7.812;2023-03-01T11:13:08;25.87;;;16.80;;
72205;SDS011;60111;48.286;7.812;2023-03-01T11:16:01;24.80;;;15.53;;
72205;SDS011;60111;48.286;7.812;2023-03-01T11:18:35;22.22;;;17.05;;
72205;SDS011;60111;48.286;7.812;2023-03-01T11:21:08;25.57;;;16.60;;
72205;SDS011;60111;48.286;7.812;2023-03-01T11:23:42;21.87;;;16.93;;
72205;SDS011;60111;48.286;7.812;2023-03-01T11:26:17;23.35;;;17.87;;
72205;SDS011;60111;48.286;7.812;2023-03-01T11:28:51;22.58;;;17.37;;
72205;SDS011;60111;48.286;7.812;2023-03-01T11:31:26;23.42;;;15.83;;
72205;SDS011;60111;48.286;7.812;2023-03-01T11:34:10;24.57;;;17.25;;
72205;SDS011;60111;48.286;7.812;2023-03-01T11:36:48;23.87;;;16.60;;
72205;SDS011;60111;48.286;7.812;2023-03-01T11:42:06;22.30;;;16.25;;
72205;SDS011;60111;48.286;7.812;2023-03-01T11:44:39;23.03;;;16.40;;
72205;SDS011;60111;48.286;7.812;2023-03-01T11:55:43;22.58;;;16.50;;
72205;SDS011;60111;48.286;7.812;2023-03-01T11:58:19;20.12;;;15.98;;
72205;SDS011;60111;48.286;7.812;2023-03-01T12:00:57;23.47;;;17.02;;
72205;SDS011;60111;48.286;7.812;2023-03-01T12:06:35;21.23;;;16.37;;
72205;SDS011;60111;48.286;7.812;2023-03-01T12:09:38;23.35;;;17.42;;
72205;SDS011;60111;48.286;7.812;2023-03-01T12:12:25;24.20;;;17.50;;
72205;SDS011;60111;48.286;7.812;2023-03-01T12:15:00;26.27;;;19.00;;
72205;SDS011;60111;48.286;7.812;2023-03-01T12:20:35;24.82;;;17.52;;
72205;SDS011;60111;48.286;7.812;2023-03-01T12:29:01;23.85;;;18.50;;
72205;SDS011;60111;48.286;7.812;2023-03-01T12:34:34;25.25;;;17.87;;
72205;SDS011;60111;48.286;7.812;2023-03-01T12:45:26;25.65;;;18.40;;
72205;SDS011;60111;48.286;7.812;2023-03-01T12:50:57;28.10;;;19.37;;
72205;SDS011;60111;48.286;7.812;2023-03-01T12:53:32;25.68;;;19.27;;
72205;SDS011;60111;48.286;7.812;2023-03-01T12:56:10;26.30;;;20.00;;
72205;SDS011;60111;48.286;7.812;2023-03-01T13:02:12;28.75;;;19.70;;
72205;SDS011;60111;48.286;7.812;2023-03-01T13:09:39;25.02;;;18.75;;
72205;SDS011;60111;48.286;7.812;2023-03-01T13:17:59;31.05;;;19.67;;
72205;SDS011;60111;48.286;7.812;2023-03-01T13:28:49;26.37;;;20.08;;
72205;SDS011;60111;48.286;7.812;2023-03-01T13:37:18;27.77;;;20.52;;
72205;SDS011;60111;48.286;7.812;2023-03-01T13:39:53;31.70;;;19.35;;
72205;SDS011;60111;48.286;7.812;2023-03-01T13:42:33;25.43;;;19.35;;
72205;SDS011;60111;48.286;7.812;2023-03-01T13:45:17;32.03;;;20.57;;
72205;SDS011;60111;48.286;7.812;2023-03-01T13:50:54;26.62;;;19.27;;
72205;SDS011;60111;48.286;7.812;2023-03-01T13:53:24;27.70;;;19.23;;
72205;SDS011;60111;48.286;7.812;2023-03-01T13:56:07;26.62;;;19.52;;
72205;SDS011;60111;48.286;7.812;2023-03-01T13:58:47;30.45;;;21.17;;
72205;SDS011;60111;48.286;7.812;2023-03-01T14:01:27;28.07;;;20.48;;
72205;SDS011;60111;48.286;7.812;2023-03-01T14:04:02;32.03;;;20.35;;
72205;SDS011;60111;48.286;7.812;2023-03-01T14:06:37;26.05;;;19.85;;
72205;SDS011;60111;48.286;7.812;2023-03-01T14:09:14;27.73;;;19.67;;
72205;SDS011;60111;48.286;7.812;2023-03-01T14:11:58;28.02;;;19.35;;
72205;SDS011;60111;48.286;7.812;2023-03-01T14:14:42;30.07;;;21.27;;
72205;SDS011;60111;48.286;7.812;2023-03-01T14:19:59;33.02;;;21.12;;
72205;SDS011;60111;48.286;7.812;2023-03-01T14:22:30;27.65;;;19.82;;
72205;SDS011;60111;48.286;7.812;2023-03-01T14:25:06;27.82;;;20.48;;
72205;SDS011;60111;48.286;7.812;2023-03-01T14:27:56;30.08;;;20.72;;
72205;SDS011;60111;48.286;7.812;2023-03-01T14:30:50;29.10;;;20.23;;
72205;SDS011;60111;48.286;7.812;2023-03-01T14:33:31;29.10;;;20.20;;
72205;SDS011;60111;48.286;7.812;2023-03-01T14:36:08;26.82;;;19.55;;
72205;SDS011;60111;48.286;7.812;2023-03-01T14:38:47;29.87;;;20.55;;
72205;SDS011;60111;48.286;7.812;2023-03-01T14:41:18;29.80;;;19.60;;
72205;SDS011;60111;48.286;7.812;2023-03-01T14:43:55;27.05;;;19.62;;
72205;SDS011;60111;48.286;7.812;2023-03-01T14:46:39;29.35;;;19.40;;
72205;SDS011;60111;48.286;7.812;2023-03-01T14:49:19;32.17;;;20.07;;
72205;SDS011;60111;48.286;7.812;2023-03-01T14:51:54;29.85;;;20.68;;
72205;SDS011;60111;48.286;7.812;2023-03-01T14:54:39;27.48;;;19.30;;
72205;SDS011;60111;48.286;7.812;2023-03-01T14:57:16;30.05;;;21.27;;
72205;SDS011;60111;48.286;7.812;2023-03-01T14:59:53;31.77;;;20.75;;
72205;SDS011;60111;48.286;7.812;2023-03-01T15:02:27;29.15;;;20.57;;
72205;SDS011;60111;48.286;7.812;2023-03-01T15:05:02;31.77;;;22.05;;
72205;SDS011;60111;48.286;7.812;2023-03-01T15:07:38;30.92;;;20.70;;
72205;SDS011;60111;48.286;7.812;2023-03-01T15:12:48;35.03;;;21.37;;
72205;SDS011;60111;48.286;7.812;2023-03-01T15:18:01;29.60;;;20.08;;
72205;SDS011;60111;48.286;7.812;2023-03-01T15:20:36;30.32;;;20.62;;
72205;SDS011;60111;48.286;7.812;2023-03-01T15:23:16;27.70;;;19.07;;
72205;SDS011;60111;48.286;7.812;2023-03-01T15:25:46;34.88;;;21.10;;
72205;SDS011;60111;48.286;7.812;2023-03-01T15:28:22;28.90;;;19.40;;
72205;SDS011;60111;48.286;7.812;2023-03-01T15:30:58;27.73;;;19.12;;
72205;SDS011;60111;48.286;7.812;2023-03-01T15:33:35;28.20;;;19.82;;
72205;SDS011;60111;48.286;7.812;2023-03-01T15:39:25;31.43;;;20.07;;
72205;SDS011;60111;48.286;7.812;2023-03-01T15:41:57;29.98;;;19.77;;
72205;SDS011;60111;48.286;7.812;2023-03-01T15:44:34;27.67;;;19.37;;
72205;SDS011;60111;48.286;7.812;2023-03-01T15:47:22;29.92;;;20.23;;
72205;SDS011;60111;48.286;7.812;2023-03-01T15:49:56;31.95;;;20.80;;
72205;SDS011;60111;48.286;7.812;2023-03-01T15:52:35;34.30;;;21.05;;
72205;SDS011;60111;48.286;7.812;2023-03-01T15:55:20;30.52;;;21.00;;
72205;SDS011;60111;48.286;7.812;2023-03-01T15:58:03;30.70;;;20.80;;
72205;SDS011;60111;48.286;7.812;2023-03-01T16:00:37;35.80;;;22.57;;
72205;SDS011;60111;48.286;7.812;2023-03-01T16:03:10;29.60;;;20.82;;
72205;SDS011;60111;48.286;7.812;2023-03-01T16:05:43;31.68;;;22.05;;
72205;SDS011;60111;48.286;7.812;2023-03-01T16:08:16;29.02;;;20.52;;
72205;SDS011;60111;48.286;7.812;2023-03-01T16:10:49;33.08;;;22.48;;
72205;SDS011;60111;48.286;7.812;2023-03-01T16:13:22;33.35;;;20.85;;
72205;SDS011;60111;48.286;7.812;2023-03-01T16:15:56;30.97;;;20.83;;
72205;SDS011;60111;48.286;7.812;2023-03-01T16:18:28;30.32;;;20.10;;
72205;SDS011;60111;48.286;7.812;2023-03-01T16:21:01;31.65;;;21.35;;
72205;SDS011;60111;48.286;7.812;2023-03-01T16:23:33;33.73;;;23.20;;
72205;SDS011;60111;48.286;7.812;2023-03-01T16:26:06;33.33;;;22.50;;
72205;SDS011;60111;48.286;7.812;2023-03-01T16:28:40;34.53;;;20.95;;
72205;SDS011;60111;48.286;7.812;2023-03-01T16:31:16;33.53;;;21.97;;
72205;SDS011;60111;48.286;7.812;2023-03-01T16:33:50;30.80;;;20.72;;
72205;SDS011;60111;48.286;7.812;2023-03-01T16:36:27;28.87;;;20.17;;
72205;SDS011;60111;48.286;7.812;2023-03-01T16:39:00;34.90;;;21.62;;
72205;SDS011;60111;48.286;7.812;2023-03-01T16:41:33;32.33;;;20.67;;